sensor_id;sensor_type;location;lat;lon;timestamp;temperature;humidity
65598;SHT31;52267;51.984;20.956;2024-02-23T00:01:13;8.53;73.64
65598;SHT31;52267;51.984;20.956;2024-02-23T00:03:40;8.54;73.58
65598;SHT31;52267;51.984;20.956;2024-02-23T00:06:07;8.54;73.77
65598;SHT31;52267;51.984;20.956;2024-02-23T00:08:35;8.56;73.78
65598;SHT31;52267;51.984;20.956;2024-02-23T00:11:02;8.57;73.71
65598;SHT31;52267;51.984;20.956;2024-02-23T00:13:29;8.58;73.66
65598;SHT31;52267;51.984;20.956;2024-02-23T00:15:56;8.57;73.64
65598;SHT31;52267;51.984;20.956;2024-02-23T00:18:23;8.58;73.66
65598;SHT31;52267;51.984;20.956;2024-02-23T00:20:50;8.58;73.75
65598;SHT31;52267;51.984;20.956;2024-02-23T00:23:17;8.59;73.67
65598;SHT31;52267;51.984;20.956;2024-02-23T00:25:45;8.60;73.77
65598;SHT31;52267;51.984;20.956;2024-02-23T00:28:12;8.62;73.64
65598;SHT31;52267;51.984;20.956;2024-02-23T00:30:39;8.64;73.60
65598;SHT31;52267;51.984;20.956;2024-02-23T00:33:06;8.65;73.50
65598;SHT31;52267;51.984;20.956;2024-02-23T00:35:33;8.66;73.67
65598;SHT31;52267;51.984;20.956;2024-02-23T00:38:00;8.65;73.58
65598;SHT31;52267;51.984;20.956;2024-02-23T00:40:28;8.66;73.75
65598;SHT31;52267;51.984;20.956;2024-02-23T00:42:55;8.65;73.72
65598;SHT31;52267;51.984;20.956;2024-02-23T00:45:22;8.66;73.89
65598;SHT31;52267;51.984;20.956;2024-02-23T00:47:49;8.69;73.73
65598;SHT31;52267;51.984;20.956;2024-02-23T00:50:16;8.69;73.88
65598;SHT31;52267;51.984;20.956;2024-02-23T00:52:43;8.69;73.79
65598;SHT31;52267;51.984;20.956;2024-02-23T00:55:10;8.69;73.89
65598;SHT31;52267;51.984;20.956;2024-02-23T00:57:38;8.70;73.64
65598;SHT31;52267;51.984;20.956;2024-02-23T01:00:05;8.73;73.78
65598;SHT31;52267;51.984;20.956;2024-02-23T01:02:33;8.73;73.72
65598;SHT31;52267;51.984;20.956;2024-02-23T01:05:00;8.75;73.66
65598;SHT31;52267;51.984;20.956;2024-02-23T01:07:27;8.77;73.72
65598;SHT31;52267;51.984;20.956;2024-02-23T01:09:54;8.76;73.77
65598;SHT31;52267;51.984;20.956;2024-02-23T01:12:21;8.76;73.67
65598;SHT31;52267;51.984;20.956;2024-02-23T01:14:48;8.75;73.80
65598;SHT31;52267;51.984;20.956;2024-02-23T01:17:15;8.75;73.74
65598;SHT31;52267;51.984;20.956;2024-02-23T01:19:43;8.74;73.84
65598;SHT31;52267;51.984;20.956;2024-02-23T01:22:10;8.75;73.84
65598;SHT31;52267;51.984;20.956;2024-02-23T01:24:37;8.75;73.93
65598;SHT31;52267;51.984;20.956;2024-02-23T01:27:04;8.78;73.83
65598;SHT31;52267;51.984;20.956;2024-02-23T01:29:31;8.78;73.90
65598;SHT31;52267;51.984;20.956;2024-02-23T01:32:01;8.77;74.04
65598;SHT31;52267;51.984;20.956;2024-02-23T01:34:29;8.77;74.14
65598;SHT31;52267;51.984;20.956;2024-02-23T01:36:56;8.77;74.16
65598;SHT31;52267;51.984;20.956;2024-02-23T01:39:23;8.77;74.21
65598;SHT31;52267;51.984;20.956;2024-02-23T01:41:50;8.79;74.34
65598;SHT31;52267;51.984;20.956;2024-02-23T01:44:17;8.79;74.27
65598;SHT31;52267;51.984;20.956;2024-02-23T01:46:44;8.78;74.38
65598;SHT31;52267;51.984;20.956;2024-02-23T01:49:11;8.80;74.38
65598;SHT31;52267;51.984;20.956;2024-02-23T01:51:39;8.84;74.33
65598;SHT31;52267;51.984;20.956;2024-02-23T01:54:06;8.84;74.37
65598;SHT31;52267;51.984;20.956;2024-02-23T01:56:34;8.81;74.50
65598;SHT31;52267;51.984;20.956;2024-02-23T01:59:03;8.83;74.47
65598;SHT31;52267;51.984;20.956;2024-02-23T02:01:30;8.83;74.51
65598;SHT31;52267;51.984;20.956;2024-02-23T02:03:58;8.82;74.55
65598;SHT31;52267;51.984;20.956;2024-02-23T02:06:25;8.82;74.68
65598;SHT31;52267;51.984;20.956;2024-02-23T02:08:52;8.83;74.70
65598;SHT31;52267;51.984;20.956;2024-02-23T02:11:20;8.83;74.70
65598;SHT31;52267;51.984;20.956;2024-02-23T02:13:47;8.84;74.79
65598;SHT31;52267;51.984;20.956;2024-02-23T02:16:14;8.83;74.82
65598;SHT31;52267;51.984;20.956;2024-02-23T02:18:41;8.82;74.88
65598;SHT31;52267;51.984;20.956;2024-02-23T02:21:11;8.82;74.96
65598;SHT31;52267;51.984;20.956;2024-02-23T02:23:38;8.83;74.96
65598;SHT31;52267;51.984;20.956;2024-02-23T02:26:05;8.85;74.91
65598;SHT31;52267;51.984;20.956;2024-02-23T02:28:32;8.85;74.92
65598;SHT31;52267;51.984;20.956;2024-02-23T02:30:59;8.87;74.98
65598;SHT31;52267;51.984;20.956;2024-02-23T02:33:26;8.88;75.01
65598;SHT31;52267;51.984;20.956;2024-02-23T02:35:53;8.86;75.07
65598;SHT31;52267;51.984;20.956;2024-02-23T02:38:20;8.86;75.14
65598;SHT31;52267;51.984;20.956;2024-02-23T02:40:47;8.88;75.10
65598;SHT31;52267;51.984;20.956;2024-02-23T02:43:14;8.89;75.22
65598;SHT31;52267;51.984;20.956;2024-02-23T02:45:41;8.87;75.36
65598;SHT31;52267;51.984;20.956;2024-02-23T02:48:08;8.88;75.29
65598;SHT31;52267;51.984;20.956;2024-02-23T02:50:36;8.88;75.35
65598;SHT31;52267;51.984;20.956;2024-02-23T02:53:03;8.89;75.40
65598;SHT31;52267;51.984;20.956;2024-02-23T02:55:30;8.89;75.45
65598;SHT31;52267;51.984;20.956;2024-02-23T02:57:57;8.88;75.70
65598;SHT31;52267;51.984;20.956;2024-02-23T03:00:24;8.86;75.82
65598;SHT31;52267;51.984;20.956;2024-02-23T03:02:51;8.87;76.05
65598;SHT31;52267;51.984;20.956;2024-02-23T03:05:18;8.82;76.53
65598;SHT31;52267;51.984;20.956;2024-02-23T03:07:45;8.82;76.76
65598;SHT31;52267;51.984;20.956;2024-02-23T03:10:12;8.75;77.95
65598;SHT31;52267;51.984;20.956;2024-02-23T03:12:39;8.66;78.46
65598;SHT31;52267;51.984;20.956;2024-02-23T03:15:06;8.61;79.06
65598;SHT31;52267;51.984;20.956;2024-02-23T03:17:34;8.55;79.75
65598;SHT31;52267;51.984;20.956;2024-02-23T03:20:01;8.47;80.52
65598;SHT31;52267;51.984;20.956;2024-02-23T03:22:32;8.42;80.72
65598;SHT31;52267;51.984;20.956;2024-02-23T03:24:59;8.38;80.43
65598;SHT31;52267;51.984;20.956;2024-02-23T03:27:27;8.35;81.07
65598;SHT31;52267;51.984;20.956;2024-02-23T03:29:55;8.27;82.02
65598;SHT31;52267;51.984;20.956;2024-02-23T03:32:22;8.22;82.44
65598;SHT31;52267;51.984;20.956;2024-02-23T03:34:49;8.18;82.32
65598;SHT31;52267;51.984;20.956;2024-02-23T03:37:16;8.15;82.37
65598;SHT31;52267;51.984;20.956;2024-02-23T03:39:43;8.15;81.79
65598;SHT31;52267;51.984;20.956;2024-02-23T03:42:10;8.15;81.63
65598;SHT31;52267;51.984;20.956;2024-02-23T03:44:37;8.14;81.93
65598;SHT31;52267;51.984;20.956;2024-02-23T03:47:04;8.14;82.07
65598;SHT31;52267;51.984;20.956;2024-02-23T03:49:31;8.13;82.57
65598;SHT31;52267;51.984;20.956;2024-02-23T03:51:58;8.11;82.38
65598;SHT31;52267;51.984;20.956;2024-02-23T03:54:25;8.11;82.86
65598;SHT31;52267;51.984;20.956;2024-02-23T03:56:52;8.10;83.16
65598;SHT31;52267;51.984;20.956;2024-02-23T03:59:19;8.09;83.14
65598;SHT31;52267;51.984;20.956;2024-02-23T04:01:46;8.07;82.89
65598;SHT31;52267;51.984;20.956;2024-02-23T04:04:13;8.08;82.71
65598;SHT31;52267;51.984;20.956;2024-02-23T04:06:40;8.07;82.93
65598;SHT31;52267;51.984;20.956;2024-02-23T04:09:07;8.06;83.35
65598;SHT31;52267;51.984;20.956;2024-02-23T04:11:35;8.03;84.01
65598;SHT31;52267;51.984;20.956;2024-02-23T04:14:02;7.99;84.62
65598;SHT31;52267;51.984;20.956;2024-02-23T04:16:31;8.00;83.86
65598;SHT31;52267;51.984;20.956;2024-02-23T04:18:58;7.99;83.99
65598;SHT31;52267;51.984;20.956;2024-02-23T04:21:26;7.97;84.61
65598;SHT31;52267;51.984;20.956;2024-02-23T04:23:53;7.93;85.24
65598;SHT31;52267;51.984;20.956;2024-02-23T04:26:20;7.92;85.62
65598;SHT31;52267;51.984;20.956;2024-02-23T04:28:47;7.88;86.46
65598;SHT31;52267;51.984;20.956;2024-02-23T04:31:14;7.86;86.21
65598;SHT31;52267;51.984;20.956;2024-02-23T04:33:41;7.84;86.78
65598;SHT31;52267;51.984;20.956;2024-02-23T04:36:08;7.82;86.57
65598;SHT31;52267;51.984;20.956;2024-02-23T04:38:35;7.82;86.96
65598;SHT31;52267;51.984;20.956;2024-02-23T04:41:03;7.82;86.78
65598;SHT31;52267;51.984;20.956;2024-02-23T04:43:31;7.82;86.69
65598;SHT31;52267;51.984;20.956;2024-02-23T04:45:58;7.81;87.26
65598;SHT31;52267;51.984;20.956;2024-02-23T04:48:25;7.81;87.21
65598;SHT31;52267;51.984;20.956;2024-02-23T04:50:52;7.81;86.82
65598;SHT31;52267;51.984;20.956;2024-02-23T04:53:19;7.82;87.51
65598;SHT31;52267;51.984;20.956;2024-02-23T04:55:46;7.81;88.16
65598;SHT31;52267;51.984;20.956;2024-02-23T04:58:13;7.82;88.17
65598;SHT31;52267;51.984;20.956;2024-02-23T05:00:41;7.82;88.20
65598;SHT31;52267;51.984;20.956;2024-02-23T05:03:09;7.82;88.58
65598;SHT31;52267;51.984;20.956;2024-02-23T05:05:36;7.83;88.50
65598;SHT31;52267;51.984;20.956;2024-02-23T05:08:03;7.85;88.40
65598;SHT31;52267;51.984;20.956;2024-02-23T05:10:30;7.84;88.12
65598;SHT31;52267;51.984;20.956;2024-02-23T05:12:57;7.85;88.57
65598;SHT31;52267;51.984;20.956;2024-02-23T05:15:24;7.85;88.44
65598;SHT31;52267;51.984;20.956;2024-02-23T05:17:51;7.86;89.02
65598;SHT31;52267;51.984;20.956;2024-02-23T05:20:18;7.84;89.46
65598;SHT31;52267;51.984;20.956;2024-02-23T05:22:45;7.86;88.91
65598;SHT31;52267;51.984;20.956;2024-02-23T05:25:12;7.88;89.08
65598;SHT31;52267;51.984;20.956;2024-02-23T05:27:40;7.86;89.33
65598;SHT31;52267;51.984;20.956;2024-02-23T05:30:07;7.86;89.89
65598;SHT31;52267;51.984;20.956;2024-02-23T05:32:35;7.84;90.43
65598;SHT31;52267;51.984;20.956;2024-02-23T05:35:02;7.84;90.04
65598;SHT31;52267;51.984;20.956;2024-02-23T05:37:30;7.87;89.33
65598;SHT31;52267;51.984;20.956;2024-02-23T05:39:57;7.87;89.47
65598;SHT31;52267;51.984;20.956;2024-02-23T05:42:26;7.87;89.42
65598;SHT31;52267;51.984;20.956;2024-02-23T05:44:53;7.84;90.15
65598;SHT31;52267;51.984;20.956;2024-02-23T05:47:20;7.83;90.41
65598;SHT31;52267;51.984;20.956;2024-02-23T05:49:47;7.85;90.62
65598;SHT31;52267;51.984;20.956;2024-02-23T05:52:14;7.84;90.65
65598;SHT31;52267;51.984;20.956;2024-02-23T05:54:41;7.85;90.53
65598;SHT31;52267;51.984;20.956;2024-02-23T05:57:08;7.83;91.00
65598;SHT31;52267;51.984;20.956;2024-02-23T05:59:35;7.87;90.74
65598;SHT31;52267;51.984;20.956;2024-02-23T06:02:02;7.87;90.59
65598;SHT31;52267;51.984;20.956;2024-02-23T06:04:30;7.89;90.49
65598;SHT31;52267;51.984;20.956;2024-02-23T06:06:57;7.88;90.78
65598;SHT31;52267;51.984;20.956;2024-02-23T06:09:24;7.89;90.50
65598;SHT31;52267;51.984;20.956;2024-02-23T06:11:51;7.90;90.34
65598;SHT31;52267;51.984;20.956;2024-02-23T06:14:18;7.91;89.84
65598;SHT31;52267;51.984;20.956;2024-02-23T06:16:45;7.91;90.13
65598;SHT31;52267;51.984;20.956;2024-02-23T06:19:12;7.92;90.29
65598;SHT31;52267;51.984;20.956;2024-02-23T06:21:39;7.91;90.60
65598;SHT31;52267;51.984;20.956;2024-02-23T06:24:06;7.91;90.44
65598;SHT31;52267;51.984;20.956;2024-02-23T06:26:35;7.93;90.41
65598;SHT31;52267;51.984;20.956;2024-02-23T06:29:02;7.94;90.79
65598;SHT31;52267;51.984;20.956;2024-02-23T06:31:30;7.93;90.94
65598;SHT31;52267;51.984;20.956;2024-02-23T06:33:57;7.92;91.21
65598;SHT31;52267;51.984;20.956;2024-02-23T06:36:24;7.95;90.89
65598;SHT31;52267;51.984;20.956;2024-02-23T06:38:51;7.97;90.82
65598;SHT31;52267;51.984;20.956;2024-02-23T06:41:18;7.98;90.80
65598;SHT31;52267;51.984;20.956;2024-02-23T06:43:45;7.98;91.02
65598;SHT31;52267;51.984;20.956;2024-02-23T06:46:12;8.00;90.69
65598;SHT31;52267;51.984;20.956;2024-02-23T06:48:39;7.99;91.34
65598;SHT31;52267;51.984;20.956;2024-02-23T06:51:07;8.00;91.24
65598;SHT31;52267;51.984;20.956;2024-02-23T06:53:35;7.98;91.69
65598;SHT31;52267;51.984;20.956;2024-02-23T06:56:02;8.01;91.54
65598;SHT31;52267;51.984;20.956;2024-02-23T06:58:30;8.02;91.54
65598;SHT31;52267;51.984;20.956;2024-02-23T07:00:59;8.04;91.23
65598;SHT31;52267;51.984;20.956;2024-02-23T07:03:27;8.03;91.71
65598;SHT31;52267;51.984;20.956;2024-02-23T07:05:54;8.05;91.62
65598;SHT31;52267;51.984;20.956;2024-02-23T07:08:21;8.07;91.41
65598;SHT31;52267;51.984;20.956;2024-02-23T07:10:48;8.09;90.96
65598;SHT31;52267;51.984;20.956;2024-02-23T07:13:15;8.10;91.55
65598;SHT31;52267;51.984;20.956;2024-02-23T07:15:44;8.13;91.56
65598;SHT31;52267;51.984;20.956;2024-02-23T07:18:11;8.14;91.42
65598;SHT31;52267;51.984;20.956;2024-02-23T07:20:38;8.15;91.64
65598;SHT31;52267;51.984;20.956;2024-02-23T07:23:05;8.17;91.80
65598;SHT31;52267;51.984;20.956;2024-02-23T07:25:33;8.19;92.01
65598;SHT31;52267;51.984;20.956;2024-02-23T07:28:00;8.20;91.96
65598;SHT31;52267;51.984;20.956;2024-02-23T07:30:27;8.26;91.81
65598;SHT31;52267;51.984;20.956;2024-02-23T07:32:54;8.28;91.77
65598;SHT31;52267;51.984;20.956;2024-02-23T07:35:21;8.30;91.82
65598;SHT31;52267;51.984;20.956;2024-02-23T07:37:48;8.33;91.67
65598;SHT31;52267;51.984;20.956;2024-02-23T07:40:15;8.37;91.46
65598;SHT31;52267;51.984;20.956;2024-02-23T07:42:42;8.40;91.41
65598;SHT31;52267;51.984;20.956;2024-02-23T07:45:09;8.42;91.23
65598;SHT31;52267;51.984;20.956;2024-02-23T07:47:37;8.45;91.09
65598;SHT31;52267;51.984;20.956;2024-02-23T07:50:04;8.45;91.32
65598;SHT31;52267;51.984;20.956;2024-02-23T07:52:32;8.43;91.41
65598;SHT31;52267;51.984;20.956;2024-02-23T07:54:59;8.46;91.19
65598;SHT31;52267;51.984;20.956;2024-02-23T07:57:29;8.46;91.28
65598;SHT31;52267;51.984;20.956;2024-02-23T07:59:57;8.49;91.11
65598;SHT31;52267;51.984;20.956;2024-02-23T08:02:24;8.51;91.10
65598;SHT31;52267;51.984;20.956;2024-02-23T08:04:52;8.57;91.08
65598;SHT31;52267;51.984;20.956;2024-02-23T08:07:19;8.59;90.96
65598;SHT31;52267;51.984;20.956;2024-02-23T08:09:46;8.60;90.84
65598;SHT31;52267;51.984;20.956;2024-02-23T08:12:13;8.61;90.73
65598;SHT31;52267;51.984;20.956;2024-02-23T08:14:40;8.61;90.90
65598;SHT31;52267;51.984;20.956;2024-02-23T08:17:08;8.60;91.08
65598;SHT31;52267;51.984;20.956;2024-02-23T08:19:36;8.59;91.18
65598;SHT31;52267;51.984;20.956;2024-02-23T08:22:04;8.62;91.17
65598;SHT31;52267;51.984;20.956;2024-02-23T08:24:31;8.68;90.98
65598;SHT31;52267;51.984;20.956;2024-02-23T08:26:58;8.74;90.66
65598;SHT31;52267;51.984;20.956;2024-02-23T08:29:25;8.78;90.39
65598;SHT31;52267;51.984;20.956;2024-02-23T08:31:53;8.78;90.63
65598;SHT31;52267;51.984;20.956;2024-02-23T08:34:20;8.80;90.82
65598;SHT31;52267;51.984;20.956;2024-02-23T08:36:47;8.85;90.67
65598;SHT31;52267;51.984;20.956;2024-02-23T08:39:14;8.87;90.80
65598;SHT31;52267;51.984;20.956;2024-02-23T08:41:41;8.88;91.06
65598;SHT31;52267;51.984;20.956;2024-02-23T08:44:08;8.90;91.20
65598;SHT31;52267;51.984;20.956;2024-02-23T08:46:35;8.98;91.03
65598;SHT31;52267;51.984;20.956;2024-02-23T08:49:05;9.08;90.76
65598;SHT31;52267;51.984;20.956;2024-02-23T08:51:32;9.13;90.64
65598;SHT31;52267;51.984;20.956;2024-02-23T08:54:00;9.18;90.27
65598;SHT31;52267;51.984;20.956;2024-02-23T08:56:31;9.24;90.08
65598;SHT31;52267;51.984;20.956;2024-02-23T08:58:58;9.27;89.90
65598;SHT31;52267;51.984;20.956;2024-02-23T09:01:25;9.28;89.97
65598;SHT31;52267;51.984;20.956;2024-02-23T09:03:52;9.31;89.91
65598;SHT31;52267;51.984;20.956;2024-02-23T09:06:19;9.30;89.83
65598;SHT31;52267;51.984;20.956;2024-02-23T09:08:46;9.30;89.91
65598;SHT31;52267;51.984;20.956;2024-02-23T09:11:14;9.30;90.17
65598;SHT31;52267;51.984;20.956;2024-02-23T09:13:41;9.32;90.04
65598;SHT31;52267;51.984;20.956;2024-02-23T09:16:09;9.35;89.91
65598;SHT31;52267;51.984;20.956;2024-02-23T09:18:36;9.36;89.98
65598;SHT31;52267;51.984;20.956;2024-02-23T09:21:03;9.40;89.90
65598;SHT31;52267;51.984;20.956;2024-02-23T09:23:30;9.46;89.78
65598;SHT31;52267;51.984;20.956;2024-02-23T09:25:59;9.52;89.62
65598;SHT31;52267;51.984;20.956;2024-02-23T09:28:26;9.53;89.68
65598;SHT31;52267;51.984;20.956;2024-02-23T09:30:56;9.56;89.64
65598;SHT31;52267;51.984;20.956;2024-02-23T09:33:24;9.62;89.57
65598;SHT31;52267;51.984;20.956;2024-02-23T09:35:51;9.66;89.52
65598;SHT31;52267;51.984;20.956;2024-02-23T09:38:19;9.69;89.52
65598;SHT31;52267;51.984;20.956;2024-02-23T09:40:46;9.71;89.45
65598;SHT31;52267;51.984;20.956;2024-02-23T09:43:13;9.76;89.47
65598;SHT31;52267;51.984;20.956;2024-02-23T09:45:42;9.79;89.42
65598;SHT31;52267;51.984;20.956;2024-02-23T09:48:09;9.81;89.38
65598;SHT31;52267;51.984;20.956;2024-02-23T09:50:37;9.89;89.28
65598;SHT31;52267;51.984;20.956;2024-02-23T09:53:05;9.90;89.05
65598;SHT31;52267;51.984;20.956;2024-02-23T09:55:36;9.97;89.06
65598;SHT31;52267;51.984;20.956;2024-02-23T09:58:03;9.99;89.10
65598;SHT31;52267;51.984;20.956;2024-02-23T10:00:33;10.00;89.22
65598;SHT31;52267;51.984;20.956;2024-02-23T10:03:04;10.02;89.14
65598;SHT31;52267;51.984;20.956;2024-02-23T10:05:31;10.04;89.03
65598;SHT31;52267;51.984;20.956;2024-02-23T10:07:58;10.06;88.96
65598;SHT31;52267;51.984;20.956;2024-02-23T10:10:35;10.05;88.93
65598;SHT31;52267;51.984;20.956;2024-02-23T10:13:02;10.04;88.92
65598;SHT31;52267;51.984;20.956;2024-02-23T10:15:32;10.02;88.90
65598;SHT31;52267;51.984;20.956;2024-02-23T10:17:59;10.02;88.82
65598;SHT31;52267;51.984;20.956;2024-02-23T10:20:27;10.03;88.68
65598;SHT31;52267;51.984;20.956;2024-02-23T10:22:54;10.04;88.63
65598;SHT31;52267;51.984;20.956;2024-02-23T10:25:22;10.06;88.63
65598;SHT31;52267;51.984;20.956;2024-02-23T10:27:49;10.02;88.61
65598;SHT31;52267;51.984;20.956;2024-02-23T10:30:16;9.97;88.72
65598;SHT31;52267;51.984;20.956;2024-02-23T10:32:43;9.91;88.93
65598;SHT31;52267;51.984;20.956;2024-02-23T10:35:15;9.92;88.89
65598;SHT31;52267;51.984;20.956;2024-02-23T10:37:43;9.93;88.75
65598;SHT31;52267;51.984;20.956;2024-02-23T10:40:14;9.90;88.77
65598;SHT31;52267;51.984;20.956;2024-02-23T10:42:44;9.91;88.75
65598;SHT31;52267;51.984;20.956;2024-02-23T10:45:18;9.93;88.73
65598;SHT31;52267;51.984;20.956;2024-02-23T10:47:47;9.98;88.61
65598;SHT31;52267;51.984;20.956;2024-02-23T10:50:15;10.03;88.54
65598;SHT31;52267;51.984;20.956;2024-02-23T10:52:46;10.01;88.55
65598;SHT31;52267;51.984;20.956;2024-02-23T10:55:14;10.01;88.62
65598;SHT31;52267;51.984;20.956;2024-02-23T10:57:43;10.03;88.59
65598;SHT31;52267;51.984;20.956;2024-02-23T11:00:10;10.00;88.65
65598;SHT31;52267;51.984;20.956;2024-02-23T11:02:43;10.01;88.66
65598;SHT31;52267;51.984;20.956;2024-02-23T11:05:15;10.04;88.55
65598;SHT31;52267;51.984;20.956;2024-02-23T11:07:43;10.04;88.56
65598;SHT31;52267;51.984;20.956;2024-02-23T11:10:17;10.01;88.74
65598;SHT31;52267;51.984;20.956;2024-02-23T11:12:57;10.03;88.70
65598;SHT31;52267;51.984;20.956;2024-02-23T11:15:27;10.08;88.68
65598;SHT31;52267;51.984;20.956;2024-02-23T11:17:55;10.11;88.62
65598;SHT31;52267;51.984;20.956;2024-02-23T11:20:23;10.13;88.64
65598;SHT31;52267;51.984;20.956;2024-02-23T11:22:51;10.12;88.78
65598;SHT31;52267;51.984;20.956;2024-02-23T11:25:21;10.17;88.71
65598;SHT31;52267;51.984;20.956;2024-02-23T11:27:53;10.20;88.69
65598;SHT31;52267;51.984;20.956;2024-02-23T11:30:20;10.22;88.80
65598;SHT31;52267;51.984;20.956;2024-02-23T11:32:48;10.21;88.74
65598;SHT31;52267;51.984;20.956;2024-02-23T11:35:15;10.22;88.69
65598;SHT31;52267;51.984;20.956;2024-02-23T11:37:46;10.24;88.67
65598;SHT31;52267;51.984;20.956;2024-02-23T11:40:28;10.23;88.69
65598;SHT31;52267;51.984;20.956;2024-02-23T11:42:57;10.24;88.65
65598;SHT31;52267;51.984;20.956;2024-02-23T11:45:30;10.24;88.85
65598;SHT31;52267;51.984;20.956;2024-02-23T11:47:57;10.22;88.94
65598;SHT31;52267;51.984;20.956;2024-02-23T11:50:25;10.18;88.93
65598;SHT31;52267;51.984;20.956;2024-02-23T11:52:52;10.19;88.95
65598;SHT31;52267;51.984;20.956;2024-02-23T11:55:20;10.21;88.92
65598;SHT31;52267;51.984;20.956;2024-02-23T11:57:48;10.28;88.68
65598;SHT31;52267;51.984;20.956;2024-02-23T12:00:16;10.33;88.44
65598;SHT31;52267;51.984;20.956;2024-02-23T12:02:44;10.35;88.60
65598;SHT31;52267;51.984;20.956;2024-02-23T12:05:15;10.39;88.49
65598;SHT31;52267;51.984;20.956;2024-02-23T12:07:43;10.39;88.60
65598;SHT31;52267;51.984;20.956;2024-02-23T12:10:10;10.40;88.64
65598;SHT31;52267;51.984;20.956;2024-02-23T12:12:37;10.44;88.69
65598;SHT31;52267;51.984;20.956;2024-02-23T12:15:05;10.53;88.60
65598;SHT31;52267;51.984;20.956;2024-02-23T12:17:35;10.59;88.54
65598;SHT31;52267;51.984;20.956;2024-02-23T12:20:04;10.64;88.55
65598;SHT31;52267;51.984;20.956;2024-02-23T12:22:34;10.71;88.44
65598;SHT31;52267;51.984;20.956;2024-02-23T12:25:01;10.75;88.46
65598;SHT31;52267;51.984;20.956;2024-02-23T12:27:29;10.77;88.62
65598;SHT31;52267;51.984;20.956;2024-02-23T12:29:56;10.74;88.75
65598;SHT31;52267;51.984;20.956;2024-02-23T12:32:24;10.72;88.74
65598;SHT31;52267;51.984;20.956;2024-02-23T12:34:52;10.74;88.85
65598;SHT31;52267;51.984;20.956;2024-02-23T12:37:19;10.77;88.67
65598;SHT31;52267;51.984;20.956;2024-02-23T12:39:49;10.83;88.47
65598;SHT31;52267;51.984;20.956;2024-02-23T12:42:16;10.85;88.50
65598;SHT31;52267;51.984;20.956;2024-02-23T12:44:44;10.86;88.42
65598;SHT31;52267;51.984;20.956;2024-02-23T12:47:11;10.83;88.43
65598;SHT31;52267;51.984;20.956;2024-02-23T12:49:38;10.88;88.32
65598;SHT31;52267;51.984;20.956;2024-02-23T12:52:05;10.91;88.30
65598;SHT31;52267;51.984;20.956;2024-02-23T12:54:32;10.97;88.25
65598;SHT31;52267;51.984;20.956;2024-02-23T12:56:59;10.94;88.24
65598;SHT31;52267;51.984;20.956;2024-02-23T12:59:26;10.94;88.32
65598;SHT31;52267;51.984;20.956;2024-02-23T13:01:53;10.98;88.28
65598;SHT31;52267;51.984;20.956;2024-02-23T13:04:20;11.00;88.19
65598;SHT31;52267;51.984;20.956;2024-02-23T13:06:48;10.99;88.05
65598;SHT31;52267;51.984;20.956;2024-02-23T13:09:15;10.97;88.00
65598;SHT31;52267;51.984;20.956;2024-02-23T13:11:42;10.98;88.00
65598;SHT31;52267;51.984;20.956;2024-02-23T13:14:09;11.00;87.97
65598;SHT31;52267;51.984;20.956;2024-02-23T13:16:36;10.99;87.91
65598;SHT31;52267;51.984;20.956;2024-02-23T13:19:03;10.99;87.87
65598;SHT31;52267;51.984;20.956;2024-02-23T13:21:30;10.98;87.87
65598;SHT31;52267;51.984;20.956;2024-02-23T13:23:59;10.97;87.87
65598;SHT31;52267;51.984;20.956;2024-02-23T13:26:26;10.98;87.92
65598;SHT31;52267;51.984;20.956;2024-02-23T13:28:53;10.92;88.02
65598;SHT31;52267;51.984;20.956;2024-02-23T13:31:20;10.95;87.98
65598;SHT31;52267;51.984;20.956;2024-02-23T13:33:47;10.97;87.95
65598;SHT31;52267;51.984;20.956;2024-02-23T13:36:14;10.97;87.96
65598;SHT31;52267;51.984;20.956;2024-02-23T13:38:41;10.97;87.81
65598;SHT31;52267;51.984;20.956;2024-02-23T13:41:08;10.95;87.80
65598;SHT31;52267;51.984;20.956;2024-02-23T13:43:36;10.94;87.80
65598;SHT31;52267;51.984;20.956;2024-02-23T13:46:03;10.94;87.76
65598;SHT31;52267;51.984;20.956;2024-02-23T13:48:30;10.92;87.79
65598;SHT31;52267;51.984;20.956;2024-02-23T13:50:57;10.88;87.84
65598;SHT31;52267;51.984;20.956;2024-02-23T13:53:29;10.84;87.95
65598;SHT31;52267;51.984;20.956;2024-02-23T13:55:58;10.81;87.98
65598;SHT31;52267;51.984;20.956;2024-02-23T13:58:26;10.82;88.00
65598;SHT31;52267;51.984;20.956;2024-02-23T14:00:54;10.79;88.05
65598;SHT31;52267;51.984;20.956;2024-02-23T14:03:22;10.75;88.17
65598;SHT31;52267;51.984;20.956;2024-02-23T14:05:49;10.76;88.28
65598;SHT31;52267;51.984;20.956;2024-02-23T14:08:16;10.84;88.23
65598;SHT31;52267;51.984;20.956;2024-02-23T14:10:43;10.87;88.19
65598;SHT31;52267;51.984;20.956;2024-02-23T14:13:11;10.92;88.19
65598;SHT31;52267;51.984;20.956;2024-02-23T14:15:39;10.95;88.10
65598;SHT31;52267;51.984;20.956;2024-02-23T14:18:06;10.98;88.06
65598;SHT31;52267;51.984;20.956;2024-02-23T14:20:33;10.97;88.03
65598;SHT31;52267;51.984;20.956;2024-02-23T14:23:00;10.94;88.08
65598;SHT31;52267;51.984;20.956;2024-02-23T14:25:27;10.89;88.20
65598;SHT31;52267;51.984;20.956;2024-02-23T14:27:54;10.88;88.25
65598;SHT31;52267;51.984;20.956;2024-02-23T14:30:22;10.86;88.18
65598;SHT31;52267;51.984;20.956;2024-02-23T14:32:49;10.87;88.14
65598;SHT31;52267;51.984;20.956;2024-02-23T14:35:16;10.83;88.11
65598;SHT31;52267;51.984;20.956;2024-02-23T14:37:44;10.80;88.16
65598;SHT31;52267;51.984;20.956;2024-02-23T14:40:11;10.82;88.14
65598;SHT31;52267;51.984;20.956;2024-02-23T14:42:40;10.83;88.11
65598;SHT31;52267;51.984;20.956;2024-02-23T14:45:07;10.83;88.10
65598;SHT31;52267;51.984;20.956;2024-02-23T14:47:35;10.76;88.23
65598;SHT31;52267;51.984;20.956;2024-02-23T14:50:03;10.72;88.36
65598;SHT31;52267;51.984;20.956;2024-02-23T14:52:30;10.73;88.43
65598;SHT31;52267;51.984;20.956;2024-02-23T14:54:58;10.77;88.47
65598;SHT31;52267;51.984;20.956;2024-02-23T14:57:25;10.76;88.47
65598;SHT31;52267;51.984;20.956;2024-02-23T14:59:52;10.77;88.54
65598;SHT31;52267;51.984;20.956;2024-02-23T15:02:20;10.74;88.64
65598;SHT31;52267;51.984;20.956;2024-02-23T15:04:48;10.74;88.66
65598;SHT31;52267;51.984;20.956;2024-02-23T15:07:15;10.79;88.59
65598;SHT31;52267;51.984;20.956;2024-02-23T15:09:42;10.84;88.51
65598;SHT31;52267;51.984;20.956;2024-02-23T15:12:10;10.87;88.46
65598;SHT31;52267;51.984;20.956;2024-02-23T15:14:38;10.91;88.44
65598;SHT31;52267;51.984;20.956;2024-02-23T15:17:05;10.92;88.37
65598;SHT31;52267;51.984;20.956;2024-02-23T15:19:33;10.90;88.39
65598;SHT31;52267;51.984;20.956;2024-02-23T15:22:00;10.82;88.50
65598;SHT31;52267;51.984;20.956;2024-02-23T15:24:27;10.81;88.60
65598;SHT31;52267;51.984;20.956;2024-02-23T15:26:54;10.78;88.63